NGTA/TRW METAR and TAF weather

Enter ICAO airport designator
Station Type Date Time Source
NGTA METAR 2020/09/22 07:00 UTC NOAA

NGTA 220700Z 09009KT 9999 FEW018TCU 28/24 Q1009


Station Type Date Time Source
NGTA Decoded METAR 2020/09/22 07:00 UTC NOAA

Tarawa, Kiribati (NGTA) 01-21N 172-55E 4M
Sep 22, 2020 - 03:00 AM EDT / 2020.09.22 0700 UTC
Wind: from the E (090 degrees) at 10 MPH (9 KT):0
Visibility: greater than 7 mile(s):0
Sky conditions: mostly clear
Weather: Towering cumulus clouds observed
Temperature: 82 F (28 C)
Dew Point: 75 F (24 C)
Relative Humidity: 78%
Pressure (altimeter): 29.80 in. Hg (1009 hPa)
ob: NGTA 220700Z 09009KT 9999 FEW018TCU 28/24 Q1009
cycle: 7

Station Type Date Time Source
NGTA TAF 2020/09/22 06:16 UTC NOAA

TAF NGTA 220512Z 2206/2306 09010KT 9999 SCT020 PROB30
TEMPO 2206/2209 5000 SHRA BKN015

Example: see airport list